sensor_id;sensor_type;location;lat;lon;timestamp;P1;durP1;ratioP1;P2;durP2;ratioP2
19883;SDS011;10104;50.732;10.174;2023-06-24T00:00:58;16.77;;;6.40;;
19883;SDS011;10104;50.732;10.174;2023-06-24T00:03:19;9.70;;;6.20;;
19883;SDS011;10104;50.732;10.174;2023-06-24T00:05:41;12.57;;;6.10;;
19883;SDS011;10104;50.732;10.174;2023-06-24T00:08:06;11.67;;;5.80;;
19883;SDS011;10104;50.732;10.174;2023-06-24T00:10:28;12.63;;;6.83;;
19883;SDS011;10104;50.732;10.174;2023-06-24T00:12:50;8.83;;;6.37;;
19883;SDS011;10104;50.732;10.174;2023-06-24T00:15:12;10.47;;;6.23;;
19883;SDS011;10104;50.732;10.174;2023-06-24T00:17:33;13.50;;;6.10;;
19883;SDS011;10104;50.732;10.174;2023-06-24T00:19:55;15.70;;;6.33;;
19883;SDS011;10104;50.732;10.174;2023-06-24T00:22:16;11.97;;;5.77;;
19883;SDS011;10104;50.732;10.174;2023-06-24T00:24:38;11.57;;;5.70;;
19883;SDS011;10104;50.732;10.174;2023-06-24T00:27:01;14.40;;;6.10;;
19883;SDS011;10104;50.732;10.174;2023-06-24T00:29:22;11.77;;;5.67;;
19883;SDS011;10104;50.732;10.174;2023-06-24T00:31:44;13.33;;;6.03;;
19883;SDS011;10104;50.732;10.174;2023-06-24T00:34:05;15.23;;;5.80;;
19883;SDS011;10104;50.732;10.174;2023-06-24T00:36:27;8.17;;;5.73;;
19883;SDS011;10104;50.732;10.174;2023-06-24T00:38:48;8.10;;;5.40;;
19883;SDS011;10104;50.732;10.174;2023-06-24T00:41:10;11.43;;;5.23;;
19883;SDS011;10104;50.732;10.174;2023-06-24T00:43:31;11.27;;;5.40;;
19883;SDS011;10104;50.732;10.174;2023-06-24T00:45:53;9.70;;;5.57;;
19883;SDS011;10104;50.732;10.174;2023-06-24T00:48:16;13.27;;;5.70;;
19883;SDS011;10104;50.732;10.174;2023-06-24T00:50:38;11.10;;;5.80;;
19883;SDS011;10104;50.732;10.174;2023-06-24T00:53:03;14.90;;;5.63;;
19883;SDS011;10104;50.732;10.174;2023-06-24T00:55:25;12.37;;;5.13;;
19883;SDS011;10104;50.732;10.174;2023-06-24T00:57:47;12.17;;;5.30;;
19883;SDS011;10104;50.732;10.174;2023-06-24T01:00:13;14.53;;;5.57;;
19883;SDS011;10104;50.732;10.174;2023-06-24T01:02:35;11.90;;;4.67;;
19883;SDS011;10104;50.732;10.174;2023-06-24T01:04:58;12.40;;;5.50;;
19883;SDS011;10104;50.732;10.174;2023-06-24T01:07:20;11.70;;;5.03;;
19883;SDS011;10104;50.732;10.174;2023-06-24T01:09:42;7.87;;;4.93;;
19883;SDS011;10104;50.732;10.174;2023-06-24T01:12:04;14.50;;;5.20;;
19883;SDS011;10104;50.732;10.174;2023-06-24T01:14:26;7.20;;;4.70;;
19883;SDS011;10104;50.732;10.174;2023-06-24T01:16:59;7.10;;;4.40;;
19883;SDS011;10104;50.732;10.174;2023-06-24T01:22:07;6.87;;;4.50;;
19883;SDS011;10104;50.732;10.174;2023-06-24T01:27:32;10.30;;;4.20;;
19883;SDS011;10104;50.732;10.174;2023-06-24T01:32:31;7.63;;;4.07;;
19883;SDS011;10104;50.732;10.174;2023-06-24T01:34:59;6.63;;;4.40;;
19883;SDS011;10104;50.732;10.174;2023-06-24T01:37:32;7.67;;;5.17;;
19883;SDS011;10104;50.732;10.174;2023-06-24T01:39:57;10.00;;;5.30;;
19883;SDS011;10104;50.732;10.174;2023-06-24T01:42:31;9.17;;;4.77;;
19883;SDS011;10104;50.732;10.174;2023-06-24T01:44:55;9.43;;;4.50;;
19883;SDS011;10104;50.732;10.174;2023-06-24T01:47:18;9.40;;;4.50;;
19883;SDS011;10104;50.732;10.174;2023-06-24T01:49:43;9.17;;;4.57;;
19883;SDS011;10104;50.732;10.174;2023-06-24T01:52:07;8.63;;;4.43;;
19883;SDS011;10104;50.732;10.174;2023-06-24T01:54:31;11.00;;;3.90;;
19883;SDS011;10104;50.732;10.174;2023-06-24T01:56:54;9.70;;;4.27;;
19883;SDS011;10104;50.732;10.174;2023-06-24T01:59:17;7.37;;;3.60;;
19883;SDS011;10104;50.732;10.174;2023-06-24T02:01:39;5.37;;;4.20;;
19883;SDS011;10104;50.732;10.174;2023-06-24T02:04:01;8.03;;;4.20;;
19883;SDS011;10104;50.732;10.174;2023-06-24T02:06:24;11.90;;;4.20;;
19883;SDS011;10104;50.732;10.174;2023-06-24T02:08:49;7.07;;;4.10;;
19883;SDS011;10104;50.732;10.174;2023-06-24T02:11:13;8.07;;;4.10;;
19883;SDS011;10104;50.732;10.174;2023-06-24T02:13:36;7.90;;;3.77;;
19883;SDS011;10104;50.732;10.174;2023-06-24T02:16:00;4.77;;;3.77;;
19883;SDS011;10104;50.732;10.174;2023-06-24T02:18:24;6.97;;;3.90;;
19883;SDS011;10104;50.732;10.174;2023-06-24T02:20:48;6.43;;;3.57;;
19883;SDS011;10104;50.732;10.174;2023-06-24T02:23:11;5.00;;;3.53;;
19883;SDS011;10104;50.732;10.174;2023-06-24T02:25:33;4.80;;;3.93;;
19883;SDS011;10104;50.732;10.174;2023-06-24T02:27:56;5.80;;;3.47;;
19883;SDS011;10104;50.732;10.174;2023-06-24T02:30:18;5.93;;;3.87;;
19883;SDS011;10104;50.732;10.174;2023-06-24T02:32:40;12.50;;;4.60;;
19883;SDS011;10104;50.732;10.174;2023-06-24T02:35:02;18.03;;;3.63;;
19883;SDS011;10104;50.732;10.174;2023-06-24T02:37:24;31.87;;;5.50;;
19883;SDS011;10104;50.732;10.174;2023-06-24T02:39:45;19.17;;;4.60;;
19883;SDS011;10104;50.732;10.174;2023-06-24T02:42:07;29.60;;;4.67;;
19883;SDS011;10104;50.732;10.174;2023-06-24T02:44:28;43.40;;;5.30;;
19883;SDS011;10104;50.732;10.174;2023-06-24T02:46:50;59.87;;;5.70;;
19883;SDS011;10104;50.732;10.174;2023-06-24T02:49:13;57.73;;;5.43;;
19883;SDS011;10104;50.732;10.174;2023-06-24T02:51:39;30.87;;;5.40;;
19883;SDS011;10104;50.732;10.174;2023-06-24T02:54:01;7.73;;;4.83;;
19883;SDS011;10104;50.732;10.174;2023-06-24T02:56:24;46.77;;;5.20;;
19883;SDS011;10104;50.732;10.174;2023-06-24T02:58:49;99.87;;;6.20;;
19883;SDS011;10104;50.732;10.174;2023-06-24T03:01:13;65.53;;;5.77;;
19883;SDS011;10104;50.732;10.174;2023-06-24T03:03:36;23.70;;;4.00;;
19883;SDS011;10104;50.732;10.174;2023-06-24T03:05:59;24.33;;;3.50;;
19883;SDS011;10104;50.732;10.174;2023-06-24T03:08:23;62.43;;;4.77;;
19883;SDS011;10104;50.732;10.174;2023-06-24T03:10:46;34.83;;;4.63;;
19883;SDS011;10104;50.732;10.174;2023-06-24T03:13:07;21.20;;;3.90;;
19883;SDS011;10104;50.732;10.174;2023-06-24T03:15:29;8.50;;;3.93;;
19883;SDS011;10104;50.732;10.174;2023-06-24T03:17:50;21.40;;;3.90;;
19883;SDS011;10104;50.732;10.174;2023-06-24T03:20:12;16.87;;;3.13;;
19883;SDS011;10104;50.732;10.174;2023-06-24T03:22:34;6.17;;;3.30;;
19883;SDS011;10104;50.732;10.174;2023-06-24T03:24:56;23.20;;;3.70;;
19883;SDS011;10104;50.732;10.174;2023-06-24T03:27:18;9.47;;;3.70;;
19883;SDS011;10104;50.732;10.174;2023-06-24T03:29:40;5.23;;;3.70;;
19883;SDS011;10104;50.732;10.174;2023-06-24T03:32:01;4.93;;;4.43;;
19883;SDS011;10104;50.732;10.174;2023-06-24T03:34:23;13.30;;;4.10;;
19883;SDS011;10104;50.732;10.174;2023-06-24T03:36:44;8.73;;;3.67;;
19883;SDS011;10104;50.732;10.174;2023-06-24T03:39:06;17.30;;;4.10;;
19883;SDS011;10104;50.732;10.174;2023-06-24T03:41:28;3.90;;;2.13;;
19883;SDS011;10104;50.732;10.174;2023-06-24T03:43:49;7.40;;;2.27;;
19883;SDS011;10104;50.732;10.174;2023-06-24T03:46:11;10.00;;;3.00;;
19883;SDS011;10104;50.732;10.174;2023-06-24T03:48:33;8.97;;;3.27;;
19883;SDS011;10104;50.732;10.174;2023-06-24T03:50:56;9.77;;;2.40;;
19883;SDS011;10104;50.732;10.174;2023-06-24T03:53:17;3.67;;;1.93;;
19883;SDS011;10104;50.732;10.174;2023-06-24T03:55:39;4.67;;;2.50;;
19883;SDS011;10104;50.732;10.174;2023-06-24T03:58:00;7.67;;;3.07;;
19883;SDS011;10104;50.732;10.174;2023-06-24T04:00:22;11.07;;;3.07;;
19883;SDS011;10104;50.732;10.174;2023-06-24T04:02:44;15.03;;;2.50;;
19883;SDS011;10104;50.732;10.174;2023-06-24T04:05:06;18.73;;;3.00;;
19883;SDS011;10104;50.732;10.174;2023-06-24T04:07:28;5.00;;;2.90;;
19883;SDS011;10104;50.732;10.174;2023-06-24T04:09:49;9.50;;;2.53;;
19883;SDS011;10104;50.732;10.174;2023-06-24T04:12:11;6.13;;;2.33;;
19883;SDS011;10104;50.732;10.174;2023-06-24T04:14:32;24.17;;;3.07;;
19883;SDS011;10104;50.732;10.174;2023-06-24T04:16:54;13.50;;;2.70;;
19883;SDS011;10104;50.732;10.174;2023-06-24T04:19:15;12.67;;;3.13;;
19883;SDS011;10104;50.732;10.174;2023-06-24T04:21:37;16.17;;;2.40;;
19883;SDS011;10104;50.732;10.174;2023-06-24T04:23:59;42.10;;;5.97;;
19883;SDS011;10104;50.732;10.174;2023-06-24T04:26:21;10.23;;;2.23;;
19883;SDS011;10104;50.732;10.174;2023-06-24T04:28:42;13.87;;;2.50;;
19883;SDS011;10104;50.732;10.174;2023-06-24T04:31:04;2.57;;;1.90;;
19883;SDS011;10104;50.732;10.174;2023-06-24T04:33:25;2.20;;;2.00;;
19883;SDS011;10104;50.732;10.174;2023-06-24T04:35:47;3.27;;;2.70;;
19883;SDS011;10104;50.732;10.174;2023-06-24T04:38:08;2.23;;;1.97;;
19883;SDS011;10104;50.732;10.174;2023-06-24T04:40:30;5.17;;;1.83;;
19883;SDS011;10104;50.732;10.174;2023-06-24T04:42:52;2.30;;;2.10;;
19883;SDS011;10104;50.732;10.174;2023-06-24T04:45:13;2.00;;;1.80;;
19883;SDS011;10104;50.732;10.174;2023-06-24T04:47:35;3.93;;;2.33;;
19883;SDS011;10104;50.732;10.174;2023-06-24T04:49:58;2.50;;;2.30;;
19883;SDS011;10104;50.732;10.174;2023-06-24T04:52:19;2.00;;;1.77;;
19883;SDS011;10104;50.732;10.174;2023-06-24T04:54:41;1.60;;;1.50;;
19883;SDS011;10104;50.732;10.174;2023-06-24T04:57:05;2.23;;;1.37;;
19883;SDS011;10104;50.732;10.174;2023-06-24T04:59:29;2.73;;;1.30;;
19883;SDS011;10104;50.732;10.174;2023-06-24T05:01:50;4.17;;;1.90;;
19883;SDS011;10104;50.732;10.174;2023-06-24T05:04:12;1.60;;;1.50;;
19883;SDS011;10104;50.732;10.174;2023-06-24T05:06:34;1.83;;;1.30;;
19883;SDS011;10104;50.732;10.174;2023-06-24T05:08:55;2.53;;;2.10;;
19883;SDS011;10104;50.732;10.174;2023-06-24T05:11:17;2.13;;;1.60;;
19883;SDS011;10104;50.732;10.174;2023-06-24T05:13:38;1.73;;;1.33;;
19883;SDS011;10104;50.732;10.174;2023-06-24T05:16:01;1.60;;;1.50;;
19883;SDS011;10104;50.732;10.174;2023-06-24T05:18:22;2.40;;;1.60;;
19883;SDS011;10104;50.732;10.174;2023-06-24T05:20:44;2.97;;;1.50;;
19883;SDS011;10104;50.732;10.174;2023-06-24T05:23:05;2.23;;;1.60;;
19883;SDS011;10104;50.732;10.174;2023-06-24T05:25:27;4.50;;;1.87;;
19883;SDS011;10104;50.732;10.174;2023-06-24T05:27:48;2.40;;;1.70;;
19883;SDS011;10104;50.732;10.174;2023-06-24T05:30:10;1.80;;;1.60;;
19883;SDS011;10104;50.732;10.174;2023-06-24T05:32:32;2.93;;;2.20;;
19883;SDS011;10104;50.732;10.174;2023-06-24T05:34:53;3.87;;;1.80;;
19883;SDS011;10104;50.732;10.174;2023-06-24T05:37:15;2.00;;;1.80;;
19883;SDS011;10104;50.732;10.174;2023-06-24T05:39:36;5.17;;;1.90;;
19883;SDS011;10104;50.732;10.174;2023-06-24T05:41:58;2.03;;;1.87;;
19883;SDS011;10104;50.732;10.174;2023-06-24T05:44:19;4.10;;;1.70;;
19883;SDS011;10104;50.732;10.174;2023-06-24T05:46:41;3.93;;;2.00;;
19883;SDS011;10104;50.732;10.174;2023-06-24T05:49:03;3.67;;;2.00;;
19883;SDS011;10104;50.732;10.174;2023-06-24T05:51:24;4.00;;;2.20;;
19883;SDS011;10104;50.732;10.174;2023-06-24T05:53:46;5.07;;;2.20;;
19883;SDS011;10104;50.732;10.174;2023-06-24T05:56:07;3.33;;;2.35;;
19883;SDS011;10104;50.732;10.174;2023-06-24T05:58:29;4.22;;;2.10;;
19883;SDS011;10104;50.732;10.174;2023-06-24T06:00:50;6.00;;;2.13;;
19883;SDS011;10104;50.732;10.174;2023-06-24T06:03:12;2.53;;;2.22;;
19883;SDS011;10104;50.732;10.174;2023-06-24T06:05:34;8.13;;;5.15;;
19883;SDS011;10104;50.732;10.174;2023-06-24T06:07:56;2.85;;;2.55;;
19883;SDS011;10104;50.732;10.174;2023-06-24T06:10:17;3.08;;;2.67;;
19883;SDS011;10104;50.732;10.174;2023-06-24T06:12:39;3.00;;;2.70;;
19883;SDS011;10104;50.732;10.174;2023-06-24T06:15:00;4.03;;;2.63;;
19883;SDS011;10104;50.732;10.174;2023-06-24T06:17:22;3.67;;;2.95;;
19883;SDS011;10104;50.732;10.174;2023-06-24T06:19:43;6.95;;;3.58;;
19883;SDS011;10104;50.732;10.174;2023-06-24T06:22:10;5.65;;;2.95;;
19883;SDS011;10104;50.732;10.174;2023-06-24T06:24:31;3.92;;;3.22;;
19883;SDS011;10104;50.732;10.174;2023-06-24T06:26:53;4.65;;;2.90;;
19883;SDS011;10104;50.732;10.174;2023-06-24T06:29:14;4.95;;;3.10;;
19883;SDS011;10104;50.732;10.174;2023-06-24T06:31:36;4.45;;;3.53;;
19883;SDS011;10104;50.732;10.174;2023-06-24T06:33:57;4.88;;;3.67;;
19883;SDS011;10104;50.732;10.174;2023-06-24T06:36:19;4.63;;;3.70;;
19883;SDS011;10104;50.732;10.174;2023-06-24T06:38:40;6.65;;;3.30;;
19883;SDS011;10104;50.732;10.174;2023-06-24T06:41:02;5.32;;;3.72;;
19883;SDS011;10104;50.732;10.174;2023-06-24T06:43:23;6.18;;;3.97;;
19883;SDS011;10104;50.732;10.174;2023-06-24T06:45:45;11.82;;;3.65;;
19883;SDS011;10104;50.732;10.174;2023-06-24T06:48:06;5.55;;;3.60;;
19883;SDS011;10104;50.732;10.174;2023-06-24T06:50:29;9.57;;;4.00;;
19883;SDS011;10104;50.732;10.174;2023-06-24T06:52:51;4.15;;;3.30;;
19883;SDS011;10104;50.732;10.174;2023-06-24T06:55:12;4.30;;;3.50;;
19883;SDS011;10104;50.732;10.174;2023-06-24T06:57:34;3.78;;;3.20;;
19883;SDS011;10104;50.732;10.174;2023-06-24T06:59:56;6.70;;;4.82;;
19883;SDS011;10104;50.732;10.174;2023-06-24T07:02:18;6.97;;;4.35;;
19883;SDS011;10104;50.732;10.174;2023-06-24T07:04:39;5.25;;;4.75;;
19883;SDS011;10104;50.732;10.174;2023-06-24T07:07:01;6.05;;;4.72;;
19883;SDS011;10104;50.732;10.174;2023-06-24T07:09:22;5.55;;;4.95;;
19883;SDS011;10104;50.732;10.174;2023-06-24T07:11:44;5.63;;;5.00;;
19883;SDS011;10104;50.732;10.174;2023-06-24T07:14:05;5.78;;;4.55;;
19883;SDS011;10104;50.732;10.174;2023-06-24T07:16:27;6.43;;;4.47;;
19883;SDS011;10104;50.732;10.174;2023-06-24T07:18:48;6.05;;;4.50;;
19883;SDS011;10104;50.732;10.174;2023-06-24T07:21:10;7.32;;;4.20;;
19883;SDS011;10104;50.732;10.174;2023-06-24T07:23:31;5.28;;;4.65;;
19883;SDS011;10104;50.732;10.174;2023-06-24T07:25:53;7.95;;;5.97;;
19883;SDS011;10104;50.732;10.174;2023-06-24T07:28:14;7.03;;;5.07;;
19883;SDS011;10104;50.732;10.174;2023-06-24T07:30:36;6.80;;;4.88;;
19883;SDS011;10104;50.732;10.174;2023-06-24T07:32:57;6.25;;;4.93;;
19883;SDS011;10104;50.732;10.174;2023-06-24T07:35:19;7.53;;;5.30;;
19883;SDS011;10104;50.732;10.174;2023-06-24T07:37:40;6.57;;;4.53;;
19883;SDS011;10104;50.732;10.174;2023-06-24T07:40:02;7.63;;;4.70;;
19883;SDS011;10104;50.732;10.174;2023-06-24T07:42:25;6.65;;;5.40;;
19883;SDS011;10104;50.732;10.174;2023-06-24T07:44:46;11.52;;;6.28;;
19883;SDS011;10104;50.732;10.174;2023-06-24T07:47:09;8.93;;;5.25;;
19883;SDS011;10104;50.732;10.174;2023-06-24T07:49:30;6.43;;;5.10;;
19883;SDS011;10104;50.732;10.174;2023-06-24T07:51:52;6.20;;;5.03;;
19883;SDS011;10104;50.732;10.174;2023-06-24T07:54:14;5.10;;;4.50;;
19883;SDS011;10104;50.732;10.174;2023-06-24T07:56:36;8.65;;;4.82;;
19883;SDS011;10104;50.732;10.174;2023-06-24T07:58:57;6.35;;;4.85;;
19883;SDS011;10104;50.732;10.174;2023-06-24T08:01:19;10.68;;;5.50;;
19883;SDS011;10104;50.732;10.174;2023-06-24T08:03:40;6.82;;;4.70;;
19883;SDS011;10104;50.732;10.174;2023-06-24T08:06:02;7.35;;;5.13;;
19883;SDS011;10104;50.732;10.174;2023-06-24T08:08:24;7.88;;;4.63;;
19883;SDS011;10104;50.732;10.174;2023-06-24T08:10:46;6.05;;;4.72;;
19883;SDS011;10104;50.732;10.174;2023-06-24T08:13:07;4.70;;;4.20;;
19883;SDS011;10104;50.732;10.174;2023-06-24T08:15:29;6.20;;;4.93;;
19883;SDS011;10104;50.732;10.174;2023-06-24T08:17:53;6.07;;;5.30;;
19883;SDS011;10104;50.732;10.174;2023-06-24T08:20:16;7.60;;;5.93;;
19883;SDS011;10104;50.732;10.174;2023-06-24T08:22:37;7.25;;;5.10;;
19883;SDS011;10104;50.732;10.174;2023-06-24T08:24:59;8.15;;;4.85;;
19883;SDS011;10104;50.732;10.174;2023-06-24T08:27:20;5.45;;;3.95;;
19883;SDS011;10104;50.732;10.174;2023-06-24T08:29:41;6.57;;;4.25;;
19883;SDS011;10104;50.732;10.174;2023-06-24T08:32:03;5.00;;;4.28;;
19883;SDS011;10104;50.732;10.174;2023-06-24T08:34:25;4.57;;;4.15;;
19883;SDS011;10104;50.732;10.174;2023-06-24T08:36:48;6.70;;;4.22;;
19883;SDS011;10104;50.732;10.174;2023-06-24T08:39:09;9.60;;;4.70;;
19883;SDS011;10104;50.732;10.174;2023-06-24T08:41:31;5.32;;;4.82;;
19883;SDS011;10104;50.732;10.174;2023-06-24T08:43:52;6.07;;;4.10;;
19883;SDS011;10104;50.732;10.174;2023-06-24T08:46:17;6.57;;;4.10;;
19883;SDS011;10104;50.732;10.174;2023-06-24T08:48:40;4.15;;;3.75;;
19883;SDS011;10104;50.732;10.174;2023-06-24T08:51:04;4.35;;;3.40;;
19883;SDS011;10104;50.732;10.174;2023-06-24T08:53:28;6.38;;;4.15;;
19883;SDS011;10104;50.732;10.174;2023-06-24T08:55:50;5.93;;;4.07;;
19883;SDS011;10104;50.732;10.174;2023-06-24T08:58:14;6.45;;;4.05;;
19883;SDS011;10104;50.732;10.174;2023-06-24T09:00:36;7.28;;;4.70;;
19883;SDS011;10104;50.732;10.174;2023-06-24T09:02:58;7.82;;;3.85;;
19883;SDS011;10104;50.732;10.174;2023-06-24T09:05:20;8.60;;;4.22;;
19883;SDS011;10104;50.732;10.174;2023-06-24T09:07:42;7.35;;;4.40;;
19883;SDS011;10104;50.732;10.174;2023-06-24T09:10:03;7.85;;;3.90;;
19883;SDS011;10104;50.732;10.174;2023-06-24T09:12:25;4.55;;;4.13;;
19883;SDS011;10104;50.732;10.174;2023-06-24T09:14:48;4.85;;;3.33;;
19883;SDS011;10104;50.732;10.174;2023-06-24T09:17:10;5.93;;;3.90;;
19883;SDS011;10104;50.732;10.174;2023-06-24T09:19:32;4.70;;;3.15;;
19883;SDS011;10104;50.732;10.174;2023-06-24T09:22:01;4.65;;;3.75;;
19883;SDS011;10104;50.732;10.174;2023-06-24T09:24:26;5.85;;;4.55;;
19883;SDS011;10104;50.732;10.174;2023-06-24T09:26:48;4.45;;;3.13;;
19883;SDS011;10104;50.732;10.174;2023-06-24T09:29:10;4.47;;;3.42;;
19883;SDS011;10104;50.732;10.174;2023-06-24T09:31:32;5.28;;;3.70;;
19883;SDS011;10104;50.732;10.174;2023-06-24T09:33:56;4.47;;;3.63;;
19883;SDS011;10104;50.732;10.174;2023-06-24T09:36:18;5.57;;;3.90;;
19883;SDS011;10104;50.732;10.174;2023-06-24T09:38:41;5.00;;;3.78;;
19883;SDS011;10104;50.732;10.174;2023-06-24T09:41:05;4.00;;;3.13;;
19883;SDS011;10104;50.732;10.174;2023-06-24T09:43:34;5.72;;;3.47;;
19883;SDS011;10104;50.732;10.174;2023-06-24T09:46:05;3.80;;;3.45;;
19883;SDS011;10104;50.732;10.174;2023-06-24T09:48:28;4.10;;;3.25;;
19883;SDS011;10104;50.732;10.174;2023-06-24T09:50:49;5.70;;;3.42;;
19883;SDS011;10104;50.732;10.174;2023-06-24T09:53:12;3.38;;;3.08;;
19883;SDS011;10104;50.732;10.174;2023-06-24T09:55:34;5.57;;;3.17;;
19883;SDS011;10104;50.732;10.174;2023-06-24T09:57:56;5.20;;;3.20;;
19883;SDS011;10104;50.732;10.174;2023-06-24T10:00:18;3.88;;;3.10;;
19883;SDS011;10104;50.732;10.174;2023-06-24T10:02:40;3.60;;;3.30;;
19883;SDS011;10104;50.732;10.174;2023-06-24T10:05:03;4.13;;;3.42;;
19883;SDS011;10104;50.732;10.174;2023-06-24T10:07:25;3.20;;;2.90;;
19883;SDS011;10104;50.732;10.174;2023-06-24T10:09:48;3.70;;;2.67;;
19883;SDS011;10104;50.732;10.174;2023-06-24T10:12:10;7.63;;;3.00;;
19883;SDS011;10104;50.732;10.174;2023-06-24T10:14:32;5.10;;;3.55;;
19883;SDS011;10104;50.732;10.174;2023-06-24T10:17:00;5.95;;;2.83;;
19883;SDS011;10104;50.732;10.174;2023-06-24T10:19:25;6.00;;;3.50;;
19883;SDS011;10104;50.732;10.174;2023-06-24T10:21:50;4.13;;;3.15;;
19883;SDS011;10104;50.732;10.174;2023-06-24T10:24:30;3.65;;;2.88;;
19883;SDS011;10104;50.732;10.174;2023-06-24T10:26:52;5.03;;;3.13;;
19883;SDS011;10104;50.732;10.174;2023-06-24T10:29:13;3.63;;;2.72;;
19883;SDS011;10104;50.732;10.174;2023-06-24T10:34:00;3.92;;;3.53;;
19883;SDS011;10104;50.732;10.174;2023-06-24T10:36:31;3.70;;;3.35;;
19883;SDS011;10104;50.732;10.174;2023-06-24T10:38:56;4.50;;;3.88;;
19883;SDS011;10104;50.732;10.174;2023-06-24T10:41:17;8.20;;;3.97;;
19883;SDS011;10104;50.732;10.174;2023-06-24T10:43:39;3.92;;;3.38;;
19883;SDS011;10104;50.732;10.174;2023-06-24T10:46:01;5.47;;;2.97;;
19883;SDS011;10104;50.732;10.174;2023-06-24T10:48:36;3.65;;;2.95;;
19883;SDS011;10104;50.732;10.174;2023-06-24T10:50:58;4.07;;;3.25;;
19883;SDS011;10104;50.732;10.174;2023-06-24T10:53:19;7.80;;;3.47;;
19883;SDS011;10104;50.732;10.174;2023-06-24T10:55:42;7.63;;;3.25;;
19883;SDS011;10104;50.732;10.174;2023-06-24T10:58:08;3.42;;;3.10;;
19883;SDS011;10104;50.732;10.174;2023-06-24T11:00:34;4.22;;;3.28;;
19883;SDS011;10104;50.732;10.174;2023-06-24T11:02:56;4.03;;;2.90;;
19883;SDS011;10104;50.732;10.174;2023-06-24T11:05:18;4.75;;;3.10;;
19883;SDS011;10104;50.732;10.174;2023-06-24T11:07:39;3.00;;;2.70;;
19883;SDS011;10104;50.732;10.174;2023-06-24T11:10:05;6.30;;;2.92;;
19883;SDS011;10104;50.732;10.174;2023-06-24T11:12:32;4.45;;;2.97;;
19883;SDS011;10104;50.732;10.174;2023-06-24T11:14:59;7.93;;;2.90;;
19883;SDS011;10104;50.732;10.174;2023-06-24T11:17:22;4.55;;;3.22;;
19883;SDS011;10104;50.732;10.174;2023-06-24T11:19:43;4.47;;;3.17;;
19883;SDS011;10104;50.732;10.174;2023-06-24T11:22:06;3.92;;;2.88;;
19883;SDS011;10104;50.732;10.174;2023-06-24T11:24:28;4.05;;;2.90;;
19883;SDS011;10104;50.732;10.174;2023-06-24T11:26:50;3.22;;;2.80;;
19883;SDS011;10104;50.732;10.174;2023-06-24T11:29:12;3.65;;;2.47;;
19883;SDS011;10104;50.732;10.174;2023-06-24T11:31:34;3.80;;;3.40;;
19883;SDS011;10104;50.732;10.174;2023-06-24T11:33:55;3.30;;;3.00;;
19883;SDS011;10104;50.732;10.174;2023-06-24T11:36:17;3.75;;;2.88;;
19883;SDS011;10104;50.732;10.174;2023-06-24T11:38:40;3.17;;;2.88;;
19883;SDS011;10104;50.732;10.174;2023-06-24T11:41:01;5.30;;;3.13;;
19883;SDS011;10104;50.732;10.174;2023-06-24T11:43:25;6.35;;;3.58;;
19883;SDS011;10104;50.732;10.174;2023-06-24T11:45:47;3.85;;;3.47;;
19883;SDS011;10104;50.732;10.174;2023-06-24T11:48:09;4.20;;;3.00;;
19883;SDS011;10104;50.732;10.174;2023-06-24T11:50:31;4.03;;;3.47;;
19883;SDS011;10104;50.732;10.174;2023-06-24T11:52:53;4.88;;;3.80;;
19883;SDS011;10104;50.732;10.174;2023-06-24T11:55:18;6.35;;;3.50;;
19883;SDS011;10104;50.732;10.174;2023-06-24T12:00:14;5.85;;;3.83;;
19883;SDS011;10104;50.732;10.174;2023-06-24T12:02:36;4.78;;;3.72;;
19883;SDS011;10104;50.732;10.174;2023-06-24T12:04:58;4.20;;;3.80;;
19883;SDS011;10104;50.732;10.174;2023-06-24T12:07:20;4.47;;;3.55;;
19883;SDS011;10104;50.732;10.174;2023-06-24T12:09:41;12.88;;;3.95;;
19883;SDS011;10104;50.732;10.174;2023-06-24T12:12:03;5.03;;;3.47;;
19883;SDS011;10104;50.732;10.174;2023-06-24T12:14:25;4.93;;;4.00;;
19883;SDS011;10104;50.732;10.174;2023-06-24T12:16:46;4.65;;;3.58;;
19883;SDS011;10104;50.732;10.174;2023-06-24T12:19:08;3.58;;;3.17;;
19883;SDS011;10104;50.732;10.174;2023-06-24T12:21:29;5.03;;;3.58;;
19883;SDS011;10104;50.732;10.174;2023-06-24T12:23:51;4.28;;;3.90;;
19883;SDS011;10104;50.732;10.174;2023-06-24T12:26:12;4.20;;;3.65;;
19883;SDS011;10104;50.732;10.174;2023-06-24T12:28:34;5.65;;;3.45;;
19883;SDS011;10104;50.732;10.174;2023-06-24T12:30:55;4.35;;;3.72;;
19883;SDS011;10104;50.732;10.174;2023-06-24T12:33:17;4.25;;;3.85;;
19883;SDS011;10104;50.732;10.174;2023-06-24T12:35:40;4.55;;;4.03;;
19883;SDS011;10104;50.732;10.174;2023-06-24T12:38:02;4.15;;;3.75;;
19883;SDS011;10104;50.732;10.174;2023-06-24T12:40:23;6.63;;;3.65;;
19883;SDS011;10104;50.732;10.174;2023-06-24T12:42:45;4.80;;;4.32;;
19883;SDS011;10104;50.732;10.174;2023-06-24T12:45:06;4.72;;;4.22;;
19883;SDS011;10104;50.732;10.174;2023-06-24T12:47:28;4.75;;;4.00;;
19883;SDS011;10104;50.732;10.174;2023-06-24T12:49:50;4.38;;;4.07;;
19883;SDS011;10104;50.732;10.174;2023-06-24T12:52:12;5.00;;;4.10;;
19883;SDS011;10104;50.732;10.174;2023-06-24T12:54:34;4.38;;;4.07;;
19883;SDS011;10104;50.732;10.174;2023-06-24T12:56:56;6.72;;;3.85;;
19883;SDS011;10104;50.732;10.174;2023-06-24T12:59:33;4.10;;;3.80;;
19883;SDS011;10104;50.732;10.174;2023-06-24T13:01:55;4.35;;;3.95;;
19883;SDS011;10104;50.732;10.174;2023-06-24T13:04:16;4.20;;;3.80;;
19883;SDS011;10104;50.732;10.174;2023-06-24T13:06:41;6.18;;;4.07;;
19883;SDS011;10104;50.732;10.174;2023-06-24T13:09:02;6.32;;;4.40;;
19883;SDS011;10104;50.732;10.174;2023-06-24T13:11:24;4.22;;;3.90;;
19883;SDS011;10104;50.732;10.174;2023-06-24T13:13:45;4.50;;;4.10;;
19883;SDS011;10104;50.732;10.174;2023-06-24T13:16:07;4.40;;;4.10;;
19883;SDS011;10104;50.732;10.174;2023-06-24T13:18:28;5.10;;;4.35;;
19883;SDS011;10104;50.732;10.174;2023-06-24T13:20:50;5.03;;;3.90;;
19883;SDS011;10104;50.732;10.174;2023-06-24T13:23:20;5.03;;;3.90;;
19883;SDS011;10104;50.732;10.174;2023-06-24T13:25:42;4.45;;;4.10;;
19883;SDS011;10104;50.732;10.174;2023-06-24T13:28:03;4.65;;;4.25;;
19883;SDS011;10104;50.732;10.174;2023-06-24T13:30:25;5.18;;;4.35;;
19883;SDS011;10104;50.732;10.174;2023-06-24T13:32:47;4.70;;;3.92;;
19883;SDS011;10104;50.732;10.174;2023-06-24T13:35:10;4.03;;;3.70;;
19883;SDS011;10104;50.732;10.174;2023-06-24T13:37:32;4.53;;;4.13;;
19883;SDS011;10104;50.732;10.174;2023-06-24T13:39:53;4.35;;;3.90;;
19883;SDS011;10104;50.732;10.174;2023-06-24T13:42:15;4.75;;;4.35;;
19883;SDS011;10104;50.732;10.174;2023-06-24T13:44:36;4.70;;;4.30;;
19883;SDS011;10104;50.732;10.174;2023-06-24T13:46:58;4.22;;;3.92;;
19883;SDS011;10104;50.732;10.174;2023-06-24T13:49:20;5.82;;;4.22;;
19883;SDS011;10104;50.732;10.174;2023-06-24T13:51:42;4.10;;;3.78;;
19883;SDS011;10104;50.732;10.174;2023-06-24T13:54:03;4.53;;;3.92;;
19883;SDS011;10104;50.732;10.174;2023-06-24T13:56:25;4.10;;;3.70;;
19883;SDS011;10104;50.732;10.174;2023-06-24T13:58:47;4.32;;;3.60;;
19883;SDS011;10104;50.732;10.174;2023-06-24T14:01:09;4.28;;;3.88;;
19883;SDS011;10104;50.732;10.174;2023-06-24T14:03:31;4.70;;;4.30;;
19883;SDS011;10104;50.732;10.174;2023-06-24T14:05:52;4.57;;;4.10;;
19883;SDS011;10104;50.732;10.174;2023-06-24T14:08:14;4.78;;;4.35;;
19883;SDS011;10104;50.732;10.174;2023-06-24T14:10:35;5.65;;;4.35;;
19883;SDS011;10104;50.732;10.174;2023-06-24T14:12:57;4.65;;;4.30;;
19883;SDS011;10104;50.732;10.174;2023-06-24T14:15:19;5.60;;;4.00;;